createdAt,value
2023-03-29T00:00:03.000Z,69.0
2023-03-29T00:00:18.000Z,69.0
2023-03-29T00:00:33.000Z,69.0
2023-03-29T00:00:48.000Z,69.0
2023-03-29T00:01:03.000Z,68.0
2023-03-29T00:01:18.000Z,69.0
2023-03-29T00:01:36.000Z,68.0
2023-03-29T00:01:48.000Z,70.0
2023-03-29T00:02:03.000Z,69.0
2023-03-29T00:02:18.000Z,70.0
2023-03-29T00:02:32.000Z,69.0
2023-03-29T00:02:47.000Z,69.0
2023-03-29T00:03:02.000Z,69.0
2023-03-29T00:03:17.000Z,69.0
2023-03-29T00:03:32.000Z,69.0
2023-03-29T00:03:47.000Z,69.0
2023-03-29T00:04:02.000Z,68.0
2023-03-29T00:04:18.000Z,68.0
2023-03-29T00:04:33.000Z,69.0
2023-03-29T00:04:48.000Z,70.0
2023-03-29T00:05:03.000Z,69.0
2023-03-29T00:05:18.000Z,69.0
2023-03-29T00:05:33.000Z,69.0
2023-03-29T00:05:48.000Z,69.0
2023-03-29T00:06:03.000Z,69.0
2023-03-29T00:06:18.000Z,69.0
2023-03-29T00:06:33.000Z,69.0
2023-03-29T00:06:48.000Z,69.0
2023-03-29T00:07:03.000Z,69.0
2023-03-29T00:07:18.000Z,69.0
2023-03-29T00:07:33.000Z,69.0
2023-03-29T00:07:48.000Z,69.0
2023-03-29T00:08:03.000Z,69.0
2023-03-29T00:08:18.000Z,69.0
2023-03-29T00:08:32.000Z,69.0
2023-03-29T00:08:47.000Z,69.0
2023-03-29T00:09:02.000Z,69.0
2023-03-29T00:09:17.000Z,69.0
2023-03-29T00:09:32.000Z,70.0
2023-03-29T00:09:47.000Z,70.0
2023-03-29T00:10:02.000Z,69.0
2023-03-29T00:10:17.000Z,70.0
2023-03-29T00:10:33.000Z,70.0
2023-03-29T00:10:48.000Z,70.0
2023-03-29T00:11:03.000Z,70.0
2023-03-29T00:11:18.000Z,70.0
2023-03-29T00:11:33.000Z,71.0
2023-03-29T00:11:48.000Z,71.0
2023-03-29T00:12:03.000Z,71.0
2023-03-29T00:12:18.000Z,70.0
2023-03-29T00:12:33.000Z,71.0
2023-03-29T00:12:48.000Z,71.0
2023-03-29T00:13:03.000Z,71.0
2023-03-29T00:13:18.000Z,71.0
2023-03-29T00:13:33.000Z,72.0
2023-03-29T00:13:48.000Z,72.0
2023-03-29T00:14:03.000Z,71.0
2023-03-29T00:14:18.000Z,71.0
2023-03-29T00:14:33.000Z,71.0
2023-03-29T00:14:48.000Z,71.0
2023-03-29T00:15:02.000Z,71.0
2023-03-29T00:15:17.000Z,71.0
2023-03-29T00:15:32.000Z,71.0
2023-03-29T00:16:02.000Z,71.0
2023-03-29T00:16:17.000Z,72.0
2023-03-29T00:16:32.000Z,71.0
2023-03-29T00:16:48.000Z,71.0
2023-03-29T00:17:03.000Z,72.0
2023-03-29T00:17:18.000Z,72.0
2023-03-29T00:17:33.000Z,72.0
2023-03-29T00:17:48.000Z,72.0
2023-03-29T00:18:03.000Z,72.0
2023-03-29T00:18:18.000Z,73.0
2023-03-29T00:18:33.000Z,72.0
2023-03-29T00:18:48.000Z,72.0
2023-03-29T00:19:03.000Z,72.0
2023-03-29T00:19:18.000Z,72.0
2023-03-29T00:19:33.000Z,72.0
2023-03-29T00:19:48.000Z,72.0
2023-03-29T00:20:03.000Z,72.0
2023-03-29T00:20:18.000Z,72.0
2023-03-29T00:20:33.000Z,72.0
2023-03-29T00:21:03.000Z,72.0
2023-03-29T00:21:17.000Z,72.0
2023-03-29T00:21:32.000Z,72.0
2023-03-29T00:21:47.000Z,72.0
2023-03-29T00:22:02.000Z,72.0
2023-03-29T00:22:17.000Z,73.0
2023-03-29T00:22:32.000Z,72.0
2023-03-29T00:22:47.000Z,72.0
2023-03-29T00:23:03.000Z,72.0
2023-03-29T00:23:18.000Z,73.0
2023-03-29T00:23:33.000Z,73.0
2023-03-29T00:24:03.000Z,72.0
2023-03-29T00:24:18.000Z,72.0
2023-03-29T00:24:33.000Z,72.0
2023-03-29T00:24:48.000Z,72.0
2023-03-29T00:25:03.000Z,72.0
2023-03-29T00:25:18.000Z,72.0
2023-03-29T00:25:33.000Z,72.0
2023-03-29T00:25:48.000Z,72.0
2023-03-29T00:26:03.000Z,72.0
2023-03-29T00:26:18.000Z,72.0
2023-03-29T00:26:33.000Z,72.0
2023-03-29T00:26:48.000Z,72.0
2023-03-29T00:27:03.000Z,72.0
2023-03-29T00:27:18.000Z,72.0
2023-03-29T00:27:32.000Z,72.0
2023-03-29T00:27:47.000Z,72.0
2023-03-29T00:28:02.000Z,72.0
2023-03-29T00:28:17.000Z,72.0
2023-03-29T00:28:32.000Z,73.0
2023-03-29T00:28:47.000Z,73.0
2023-03-29T00:29:02.000Z,72.0
2023-03-29T00:29:18.000Z,72.0
2023-03-29T00:29:33.000Z,72.0
2023-03-29T00:29:48.000Z,72.0
2023-03-29T00:30:03.000Z,72.0
2023-03-29T00:30:18.000Z,72.0
2023-03-29T00:30:33.000Z,72.0
2023-03-29T00:30:48.000Z,72.0
2023-03-29T00:31:03.000Z,72.0
2023-03-29T00:31:18.000Z,72.0
2023-03-29T00:31:33.000Z,72.0
2023-03-29T00:31:48.000Z,72.0
2023-03-29T00:32:03.000Z,73.0
2023-03-29T00:32:18.000Z,73.0
2023-03-29T00:32:33.000Z,72.0
2023-03-29T00:32:48.000Z,73.0
2023-03-29T00:33:03.000Z,72.0
2023-03-29T00:33:18.000Z,72.0
2023-03-29T00:33:33.000Z,72.0
2023-03-29T00:33:48.000Z,72.0
2023-03-29T00:34:02.000Z,72.0
2023-03-29T00:34:17.000Z,73.0
2023-03-29T00:34:32.000Z,73.0
2023-03-29T00:34:47.000Z,72.0
2023-03-29T00:35:02.000Z,72.0
2023-03-29T00:35:17.000Z,72.0
2023-03-29T00:35:32.000Z,73.0
2023-03-29T00:35:48.000Z,73.0
2023-03-29T00:36:03.000Z,73.0
2023-03-29T00:36:18.000Z,73.0
2023-03-29T00:36:33.000Z,73.0
2023-03-29T00:36:48.000Z,73.0
2023-03-29T00:37:03.000Z,73.0
2023-03-29T00:37:18.000Z,73.0
2023-03-29T00:37:33.000Z,73.0
2023-03-29T00:37:48.000Z,73.0
2023-03-29T00:38:03.000Z,73.0
2023-03-29T00:38:18.000Z,73.0
2023-03-29T00:38:33.000Z,73.0
2023-03-29T00:38:48.000Z,74.0
2023-03-29T00:39:03.000Z,74.0
2023-03-29T00:39:18.000Z,74.0
2023-03-29T00:39:33.000Z,74.0
2023-03-29T00:39:48.000Z,74.0
2023-03-29T00:40:03.000Z,74.0
2023-03-29T00:40:17.000Z,74.0
2023-03-29T00:40:32.000Z,74.0
2023-03-29T00:40:47.000Z,74.0
2023-03-29T00:41:02.000Z,74.0
2023-03-29T00:41:17.000Z,74.0
2023-03-29T00:41:32.000Z,74.0
2023-03-29T00:42:02.000Z,74.0
2023-03-29T00:42:18.000Z,74.0
2023-03-29T00:42:33.000Z,74.0
2023-03-29T00:42:48.000Z,74.0
2023-03-29T00:43:03.000Z,74.0
2023-03-29T00:43:18.000Z,74.0
2023-03-29T00:43:33.000Z,74.0
2023-03-29T00:43:48.000Z,74.0
2023-03-29T00:44:03.000Z,74.0
2023-03-29T00:44:18.000Z,74.0
2023-03-29T00:44:33.000Z,74.0
2023-03-29T00:44:48.000Z,74.0
2023-03-29T00:45:03.000Z,74.0
2023-03-29T00:45:18.000Z,74.0
2023-03-29T00:45:33.000Z,74.0
2023-03-29T00:45:48.000Z,74.0
2023-03-29T00:46:03.000Z,74.0
2023-03-29T00:46:18.000Z,74.0
2023-03-29T00:46:33.000Z,74.0
2023-03-29T00:46:47.000Z,75.0
2023-03-29T00:47:02.000Z,74.0
2023-03-29T00:47:17.000Z,75.0
2023-03-29T00:47:32.000Z,75.0
2023-03-29T00:47:47.000Z,75.0
2023-03-29T00:48:02.000Z,75.0
2023-03-29T00:48:17.000Z,75.0
2023-03-29T00:48:33.000Z,75.0
2023-03-29T00:48:48.000Z,75.0
2023-03-29T00:49:03.000Z,75.0
2023-03-29T00:49:18.000Z,75.0
2023-03-29T00:49:33.000Z,75.0
2023-03-29T00:49:48.000Z,75.0
2023-03-29T00:50:03.000Z,75.0
2023-03-29T00:50:18.000Z,75.0
2023-03-29T00:50:33.000Z,75.0
2023-03-29T00:50:48.000Z,75.0
2023-03-29T00:51:03.000Z,74.0
2023-03-29T00:51:18.000Z,75.0
2023-03-29T00:51:33.000Z,75.0
2023-03-29T00:51:48.000Z,75.0
2023-03-29T00:52:03.000Z,75.0
2023-03-29T00:52:18.000Z,75.0
2023-03-29T00:52:33.000Z,75.0
2023-03-29T00:53:02.000Z,75.0
2023-03-29T00:53:17.000Z,75.0
2023-03-29T00:53:32.000Z,75.0
2023-03-29T00:53:47.000Z,75.0
2023-03-29T00:54:02.000Z,75.0
2023-03-29T00:54:17.000Z,75.0
2023-03-29T00:54:32.000Z,75.0
2023-03-29T00:54:47.000Z,75.0
2023-03-29T00:55:03.000Z,76.0
2023-03-29T00:55:18.000Z,75.0
2023-03-29T00:55:33.000Z,75.0
2023-03-29T00:55:48.000Z,75.0
2023-03-29T00:56:03.000Z,75.0
2023-03-29T00:56:18.000Z,75.0
2023-03-29T00:56:33.000Z,75.0
2023-03-29T00:56:48.000Z,75.0
2023-03-29T00:57:03.000Z,76.0
2023-03-29T00:57:18.000Z,75.0
2023-03-29T00:57:33.000Z,75.0
2023-03-29T00:57:48.000Z,75.0
2023-03-29T00:58:03.000Z,75.0
2023-03-29T00:58:18.000Z,75.0
2023-03-29T00:58:33.000Z,76.0
2023-03-29T00:58:48.000Z,75.0
2023-03-29T00:59:03.000Z,75.0
2023-03-29T00:59:18.000Z,75.0
2023-03-29T00:59:32.000Z,75.0
2023-03-29T00:59:47.000Z,75.0
2023-03-29T01:00:02.000Z,75.0
2023-03-29T01:00:17.000Z,75.0
2023-03-29T01:00:32.000Z,75.0
2023-03-29T01:01:02.000Z,75.0
2023-03-29T01:01:18.000Z,75.0
2023-03-29T01:01:33.000Z,75.0
2023-03-29T01:01:48.000Z,75.0
2023-03-29T01:02:03.000Z,75.0
2023-03-29T01:02:18.000Z,75.0
2023-03-29T01:02:33.000Z,75.0
2023-03-29T01:02:48.000Z,75.0
2023-03-29T01:03:03.000Z,75.0
2023-03-29T01:03:18.000Z,75.0
2023-03-29T01:03:33.000Z,75.0
2023-03-29T01:03:48.000Z,76.0
2023-03-29T01:04:03.000Z,76.0
2023-03-29T01:04:18.000Z,76.0
2023-03-29T01:04:33.000Z,76.0
2023-03-29T01:04:48.000Z,76.0
2023-03-29T01:05:03.000Z,76.0
2023-03-29T01:05:18.000Z,75.0
2023-03-29T01:05:33.000Z,76.0
2023-03-29T01:05:47.000Z,76.0
2023-03-29T01:06:02.000Z,76.0
2023-03-29T01:06:17.000Z,76.0
2023-03-29T01:06:32.000Z,76.0
2023-03-29T01:06:47.000Z,76.0
2023-03-29T01:07:02.000Z,75.0
2023-03-29T01:07:17.000Z,76.0
2023-03-29T01:07:32.000Z,76.0
2023-03-29T01:07:48.000Z,76.0
2023-03-29T01:08:03.000Z,76.0
2023-03-29T01:08:18.000Z,76.0
2023-03-29T01:08:33.000Z,76.0
2023-03-29T01:09:03.000Z,76.0
2023-03-29T01:09:18.000Z,75.0
2023-03-29T01:09:33.000Z,76.0
2023-03-29T01:09:48.000Z,76.0
2023-03-29T01:10:03.000Z,77.0
2023-03-29T01:10:18.000Z,75.0
2023-03-29T01:10:33.000Z,75.0
2023-03-29T01:10:48.000Z,75.0
2023-03-29T01:11:03.000Z,75.0
2023-03-29T01:11:18.000Z,75.0
2023-03-29T01:11:33.000Z,76.0
2023-03-29T01:11:48.000Z,76.0
2023-03-29T01:12:03.000Z,76.0
2023-03-29T01:12:17.000Z,76.0
2023-03-29T01:12:32.000Z,76.0
2023-03-29T01:12:47.000Z,76.0
2023-03-29T01:13:02.000Z,76.0
2023-03-29T01:13:17.000Z,76.0
2023-03-29T01:13:32.000Z,76.0
2023-03-29T01:14:02.000Z,76.0
2023-03-29T01:14:18.000Z,76.0
2023-03-29T01:14:33.000Z,76.0
2023-03-29T01:14:48.000Z,76.0
2023-03-29T01:15:03.000Z,76.0
2023-03-29T01:15:18.000Z,76.0
2023-03-29T01:15:33.000Z,76.0
2023-03-29T01:15:48.000Z,76.0
2023-03-29T01:16:03.000Z,76.0
2023-03-29T01:16:18.000Z,76.0
2023-03-29T01:16:33.000Z,76.0
2023-03-29T01:16:48.000Z,76.0
2023-03-29T01:17:03.000Z,76.0
2023-03-29T01:17:18.000Z,76.0
2023-03-29T01:17:33.000Z,76.0
2023-03-29T01:17:48.000Z,76.0
2023-03-29T01:18:03.000Z,76.0
2023-03-29T01:18:18.000Z,75.0
2023-03-29T01:18:33.000Z,75.0
2023-03-29T01:18:47.000Z,75.0
2023-03-29T01:19:02.000Z,75.0
2023-03-29T01:19:17.000Z,75.0
2023-03-29T01:19:32.000Z,75.0
2023-03-29T01:19:47.000Z,76.0
2023-03-29T01:20:02.000Z,76.0
2023-03-29T01:20:17.000Z,75.0
2023-03-29T01:20:33.000Z,75.0
2023-03-29T01:20:48.000Z,75.0
2023-03-29T01:21:03.000Z,75.0
2023-03-29T01:21:18.000Z,75.0
2023-03-29T01:21:33.000Z,75.0
2023-03-29T01:21:48.000Z,75.0
2023-03-29T01:22:03.000Z,75.0
2023-03-29T01:22:18.000Z,75.0
2023-03-29T01:22:33.000Z,75.0
2023-03-29T01:22:48.000Z,75.0
2023-03-29T01:23:03.000Z,75.0
2023-03-29T01:23:18.000Z,75.0
2023-03-29T01:23:33.000Z,76.0
2023-03-29T01:23:48.000Z,76.0
2023-03-29T01:24:03.000Z,76.0
2023-03-29T01:24:18.000Z,76.0
2023-03-29T01:24:33.000Z,76.0
2023-03-29T01:24:48.000Z,76.0
2023-03-29T01:25:02.000Z,76.0
2023-03-29T01:25:17.000Z,76.0
2023-03-29T01:25:32.000Z,76.0
2023-03-29T01:25:47.000Z,76.0
2023-03-29T01:26:02.000Z,76.0
2023-03-29T01:26:17.000Z,76.0
2023-03-29T01:26:32.000Z,76.0
2023-03-29T01:27:03.000Z,76.0
2023-03-29T01:27:18.000Z,76.0
2023-03-29T01:27:33.000Z,76.0
2023-03-29T01:27:48.000Z,76.0
2023-03-29T01:28:03.000Z,76.0
2023-03-29T01:28:18.000Z,76.0
2023-03-29T01:28:33.000Z,76.0
2023-03-29T01:28:48.000Z,76.0
2023-03-29T01:29:03.000Z,76.0
2023-03-29T01:29:18.000Z,76.0
2023-03-29T01:29:33.000Z,76.0
2023-03-29T01:29:48.000Z,76.0
2023-03-29T01:30:03.000Z,76.0
2023-03-29T01:30:18.000Z,76.0
2023-03-29T01:30:33.000Z,76.0
2023-03-29T01:30:48.000Z,76.0
2023-03-29T01:31:03.000Z,76.0
2023-03-29T01:31:18.000Z,77.0
2023-03-29T01:31:32.000Z,76.0
2023-03-29T01:32:02.000Z,76.0
2023-03-29T01:32:17.000Z,77.0
2023-03-29T01:32:32.000Z,76.0
2023-03-29T01:32:47.000Z,76.0
2023-03-29T01:33:02.000Z,77.0
2023-03-29T01:33:17.000Z,77.0
2023-03-29T01:33:33.000Z,77.0
2023-03-29T01:33:48.000Z,76.0
2023-03-29T01:34:03.000Z,76.0
2023-03-29T01:34:18.000Z,76.0
2023-03-29T01:34:33.000Z,76.0
2023-03-29T01:34:48.000Z,76.0
2023-03-29T01:35:03.000Z,76.0
2023-03-29T01:35:18.000Z,76.0
2023-03-29T01:35:33.000Z,77.0
2023-03-29T01:35:48.000Z,76.0
2023-03-29T01:36:03.000Z,76.0
2023-03-29T01:36:18.000Z,77.0
2023-03-29T01:36:33.000Z,76.0
2023-03-29T01:36:48.000Z,76.0
2023-03-29T01:37:03.000Z,76.0
2023-03-29T01:37:18.000Z,76.0
2023-03-29T01:37:33.000Z,76.0
2023-03-29T01:37:48.000Z,76.0
2023-03-29T01:38:02.000Z,76.0
2023-03-29T01:38:17.000Z,76.0
2023-03-29T01:38:32.000Z,77.0
2023-03-29T01:38:47.000Z,77.0
2023-03-29T01:39:02.000Z,77.0
2023-03-29T01:39:17.000Z,77.0
2023-03-29T01:39:32.000Z,77.0
2023-03-29T01:40:03.000Z,77.0
2023-03-29T01:40:18.000Z,77.0
2023-03-29T01:40:33.000Z,77.0
2023-03-29T01:40:48.000Z,77.0
2023-03-29T01:41:03.000Z,77.0
2023-03-29T01:41:18.000Z,77.0
2023-03-29T01:41:33.000Z,77.0
2023-03-29T01:41:48.000Z,77.0
2023-03-29T01:42:03.000Z,77.0
2023-03-29T01:42:18.000Z,77.0
2023-03-29T01:42:33.000Z,77.0
2023-03-29T01:42:48.000Z,77.0
2023-03-29T01:43:03.000Z,77.0
2023-03-29T01:43:18.000Z,77.0
2023-03-29T01:43:33.000Z,77.0
2023-03-29T01:43:48.000Z,77.0
2023-03-29T01:44:03.000Z,77.0
2023-03-29T01:44:18.000Z,77.0
2023-03-29T01:44:32.000Z,77.0
2023-03-29T01:44:47.000Z,77.0
2023-03-29T01:45:02.000Z,77.0
2023-03-29T01:45:17.000Z,76.0
2023-03-29T01:45:32.000Z,77.0
2023-03-29T01:45:47.000Z,76.0
2023-03-29T01:46:02.000Z,77.0
2023-03-29T01:46:17.000Z,76.0
2023-03-29T01:46:33.000Z,76.0
2023-03-29T01:46:48.000Z,76.0
2023-03-29T01:47:03.000Z,77.0
2023-03-29T01:47:18.000Z,77.0
2023-03-29T01:47:33.000Z,77.0
2023-03-29T01:47:48.000Z,76.0
2023-03-29T01:48:03.000Z,77.0
2023-03-29T01:48:18.000Z,77.0
2023-03-29T01:48:33.000Z,77.0
2023-03-29T01:48:48.000Z,77.0
2023-03-29T01:49:03.000Z,77.0
2023-03-29T01:49:18.000Z,77.0
2023-03-29T01:49:33.000Z,77.0
2023-03-29T01:49:48.000Z,78.0
2023-03-29T01:50:03.000Z,77.0
2023-03-29T01:50:18.000Z,77.0
2023-03-29T01:50:33.000Z,77.0
2023-03-29T01:50:48.000Z,78.0
2023-03-29T01:51:02.000Z,78.0
2023-03-29T01:51:17.000Z,78.0
2023-03-29T01:51:32.000Z,78.0
2023-03-29T01:51:47.000Z,77.0
2023-03-29T01:52:02.000Z,77.0
2023-03-29T01:52:17.000Z,77.0
2023-03-29T01:52:32.000Z,77.0
2023-03-29T01:52:47.000Z,76.0
2023-03-29T01:53:03.000Z,77.0
2023-03-29T01:53:18.000Z,77.0
2023-03-29T01:53:33.000Z,77.0
2023-03-29T01:53:48.000Z,77.0
2023-03-29T01:54:03.000Z,77.0
2023-03-29T01:54:18.000Z,77.0
2023-03-29T01:54:33.000Z,77.0
2023-03-29T01:54:48.000Z,77.0
2023-03-29T01:55:03.000Z,77.0
2023-03-29T01:55:18.000Z,77.0
2023-03-29T01:55:33.000Z,77.0
2023-03-29T01:55:48.000Z,77.0
2023-03-29T01:56:03.000Z,77.0
2023-03-29T01:56:18.000Z,77.0
2023-03-29T01:56:33.000Z,77.0
2023-03-29T01:56:48.000Z,77.0
2023-03-29T01:57:03.000Z,77.0
2023-03-29T01:57:18.000Z,77.0
2023-03-29T01:57:32.000Z,77.0
2023-03-29T01:57:47.000Z,77.0
2023-03-29T01:58:02.000Z,77.0
2023-03-29T01:58:17.000Z,77.0
2023-03-29T01:58:32.000Z,77.0
2023-03-29T01:58:47.000Z,77.0
2023-03-29T01:59:02.000Z,77.0
2023-03-29T01:59:18.000Z,77.0
2023-03-29T01:59:33.000Z,77.0
2023-03-29T01:59:48.000Z,77.0
2023-03-29T02:00:03.000Z,77.0
2023-03-29T02:00:18.000Z,77.0
2023-03-29T02:00:33.000Z,78.0
2023-03-29T02:00:48.000Z,77.0
2023-03-29T02:01:03.000Z,77.0
2023-03-29T02:01:18.000Z,77.0
2023-03-29T02:01:33.000Z,77.0
2023-03-29T02:01:48.000Z,77.0
2023-03-29T02:02:03.000Z,77.0
2023-03-29T02:02:18.000Z,77.0
2023-03-29T02:02:33.000Z,77.0
2023-03-29T02:02:48.000Z,77.0
2023-03-29T02:03:03.000Z,77.0
2023-03-29T02:03:18.000Z,77.0
2023-03-29T02:03:33.000Z,77.0
2023-03-29T02:03:48.000Z,77.0
2023-03-29T02:04:02.000Z,77.0
2023-03-29T02:04:17.000Z,77.0
2023-03-29T02:04:32.000Z,78.0
2023-03-29T02:04:47.000Z,77.0
2023-03-29T02:05:02.000Z,77.0
2023-03-29T02:05:17.000Z,77.0
2023-03-29T02:05:32.000Z,77.0
2023-03-29T02:06:03.000Z,77.0
2023-03-29T02:06:18.000Z,77.0
2023-03-29T02:06:33.000Z,77.0
2023-03-29T02:06:48.000Z,77.0
2023-03-29T02:07:03.000Z,77.0
2023-03-29T02:07:18.000Z,77.0
2023-03-29T02:07:33.000Z,77.0
2023-03-29T02:07:48.000Z,77.0
2023-03-29T02:08:03.000Z,77.0
2023-03-29T02:08:18.000Z,77.0
2023-03-29T02:08:33.000Z,77.0
2023-03-29T02:09:03.000Z,76.0
2023-03-29T02:09:18.000Z,76.0
2023-03-29T02:09:33.000Z,76.0
2023-03-29T02:09:48.000Z,76.0
2023-03-29T02:10:03.000Z,76.0
2023-03-29T02:10:17.000Z,76.0
2023-03-29T02:10:32.000Z,76.0
2023-03-29T02:10:47.000Z,76.0
2023-03-29T02:11:02.000Z,76.0
2023-03-29T02:11:17.000Z,76.0
2023-03-29T02:11:32.000Z,76.0
2023-03-29T02:11:47.000Z,76.0
2023-03-29T02:12:02.000Z,76.0
2023-03-29T02:12:18.000Z,77.0
2023-03-29T02:12:33.000Z,77.0
2023-03-29T02:12:48.000Z,77.0
2023-03-29T02:13:03.000Z,78.0
2023-03-29T02:13:18.000Z,78.0
2023-03-29T02:13:33.000Z,77.0
2023-03-29T02:14:03.000Z,77.0
2023-03-29T02:14:18.000Z,77.0
2023-03-29T02:14:33.000Z,77.0
2023-03-29T02:14:48.000Z,78.0
2023-03-29T02:15:03.000Z,77.0
2023-03-29T02:15:18.000Z,77.0
2023-03-29T02:15:33.000Z,78.0
2023-03-29T02:15:48.000Z,77.0
2023-03-29T02:16:03.000Z,77.0
2023-03-29T02:16:18.000Z,77.0
2023-03-29T02:16:33.000Z,77.0
2023-03-29T02:16:47.000Z,77.0
2023-03-29T02:17:02.000Z,77.0
2023-03-29T02:17:17.000Z,77.0
2023-03-29T02:17:32.000Z,77.0
2023-03-29T02:17:47.000Z,77.0
2023-03-29T02:18:02.000Z,77.0
2023-03-29T02:18:17.000Z,77.0
2023-03-29T02:18:32.000Z,77.0
2023-03-29T02:18:48.000Z,77.0
2023-03-29T02:19:03.000Z,77.0
2023-03-29T02:19:18.000Z,77.0
2023-03-29T02:19:33.000Z,77.0
2023-03-29T02:19:48.000Z,77.0
2023-03-29T02:20:03.000Z,77.0
2023-03-29T02:20:18.000Z,77.0
2023-03-29T02:20:33.000Z,77.0
2023-03-29T02:20:48.000Z,77.0
2023-03-29T02:21:03.000Z,77.0
2023-03-29T02:21:18.000Z,77.0
2023-03-29T02:21:33.000Z,77.0
2023-03-29T02:21:48.000Z,76.0
2023-03-29T02:22:03.000Z,77.0
2023-03-29T02:22:18.000Z,77.0
2023-03-29T02:22:33.000Z,77.0
2023-03-29T02:22:48.000Z,77.0
2023-03-29T02:23:03.000Z,77.0
2023-03-29T02:23:17.000Z,77.0
2023-03-29T02:23:32.000Z,77.0
2023-03-29T02:23:47.000Z,77.0
2023-03-29T02:24:02.000Z,77.0
2023-03-29T02:24:17.000Z,77.0
2023-03-29T02:24:32.000Z,77.0
2023-03-29T02:24:47.000Z,78.0
2023-03-29T02:25:02.000Z,78.0
2023-03-29T02:25:18.000Z,77.0
2023-03-29T02:25:33.000Z,77.0
2023-03-29T02:25:48.000Z,77.0
2023-03-29T02:26:03.000Z,77.0
2023-03-29T02:26:18.000Z,77.0
2023-03-29T02:26:33.000Z,77.0
2023-03-29T02:27:03.000Z,77.0
2023-03-29T02:27:18.000Z,77.0
2023-03-29T02:27:33.000Z,77.0
2023-03-29T02:27:48.000Z,77.0
2023-03-29T02:28:03.000Z,77.0
2023-03-29T02:28:18.000Z,77.0
2023-03-29T02:28:33.000Z,77.0
2023-03-29T02:28:48.000Z,77.0
2023-03-29T02:29:03.000Z,78.0
2023-03-29T02:29:18.000Z,77.0
2023-03-29T02:29:33.000Z,77.0
2023-03-29T02:29:47.000Z,77.0
2023-03-29T02:30:02.000Z,77.0
2023-03-29T02:30:17.000Z,77.0
2023-03-29T02:30:32.000Z,77.0
2023-03-29T02:30:47.000Z,77.0
2023-03-29T02:31:02.000Z,77.0
2023-03-29T02:31:17.000Z,77.0
2023-03-29T02:31:32.000Z,77.0
2023-03-29T02:32:03.000Z,77.0
2023-03-29T02:32:18.000Z,77.0
2023-03-29T02:32:33.000Z,77.0
2023-03-29T02:32:48.000Z,77.0
2023-03-29T02:33:03.000Z,78.0
2023-03-29T02:33:18.000Z,78.0
2023-03-29T02:33:33.000Z,78.0
2023-03-29T02:33:48.000Z,77.0
2023-03-29T02:34:03.000Z,77.0
2023-03-29T02:34:18.000Z,77.0
2023-03-29T02:34:33.000Z,77.0
2023-03-29T02:34:48.000Z,77.0
2023-03-29T02:35:03.000Z,77.0
2023-03-29T02:35:18.000Z,77.0
2023-03-29T02:35:33.000Z,77.0
2023-03-29T02:35:48.000Z,77.0
2023-03-29T02:36:03.000Z,77.0
2023-03-29T02:36:17.000Z,77.0
2023-03-29T02:36:32.000Z,77.0
2023-03-29T02:36:47.000Z,77.0
2023-03-29T02:37:02.000Z,77.0
2023-03-29T02:37:17.000Z,77.0
2023-03-29T02:37:32.000Z,77.0
2023-03-29T02:37:47.000Z,77.0
2023-03-29T02:38:02.000Z,77.0
2023-03-29T02:38:18.000Z,77.0
2023-03-29T02:38:33.000Z,78.0
2023-03-29T02:38:48.000Z,78.0
2023-03-29T02:39:03.000Z,78.0
2023-03-29T02:39:18.000Z,78.0
2023-03-29T02:39:33.000Z,78.0
2023-03-29T02:40:03.000Z,78.0
2023-03-29T02:40:18.000Z,78.0
2023-03-29T02:40:33.000Z,78.0
2023-03-29T02:40:48.000Z,78.0
2023-03-29T02:41:03.000Z,78.0
2023-03-29T02:41:18.000Z,78.0
2023-03-29T02:41:33.000Z,78.0
2023-03-29T02:41:48.000Z,78.0
2023-03-29T02:42:03.000Z,78.0
2023-03-29T02:42:18.000Z,78.0
2023-03-29T02:42:33.000Z,77.0
2023-03-29T02:42:47.000Z,77.0
2023-03-29T02:43:02.000Z,77.0
2023-03-29T02:43:17.000Z,77.0
2023-03-29T02:43:32.000Z,77.0
2023-03-29T02:43:47.000Z,77.0
2023-03-29T02:44:02.000Z,77.0
2023-03-29T02:44:17.000Z,77.0
2023-03-29T02:44:32.000Z,77.0
2023-03-29T02:44:48.000Z,77.0
2023-03-29T02:45:03.000Z,77.0
2023-03-29T02:45:18.000Z,77.0
2023-03-29T02:45:33.000Z,77.0
2023-03-29T02:45:48.000Z,77.0
2023-03-29T02:46:03.000Z,77.0
2023-03-29T02:46:18.000Z,77.0
2023-03-29T02:46:33.000Z,77.0
2023-03-29T02:46:48.000Z,77.0
2023-03-29T02:47:03.000Z,77.0
2023-03-29T02:47:18.000Z,77.0
2023-03-29T02:47:33.000Z,76.0
2023-03-29T02:47:48.000Z,76.0
2023-03-29T02:48:03.000Z,76.0
2023-03-29T02:48:18.000Z,76.0
2023-03-29T02:48:33.000Z,76.0
2023-03-29T02:48:48.000Z,76.0
2023-03-29T02:49:03.000Z,76.0
2023-03-29T02:49:17.000Z,76.0
2023-03-29T02:49:32.000Z,76.0
2023-03-29T02:49:47.000Z,76.0
2023-03-29T02:50:02.000Z,76.0
2023-03-29T02:50:17.000Z,76.0
2023-03-29T02:50:32.000Z,76.0
2023-03-29T02:50:47.000Z,76.0
2023-03-29T02:51:02.000Z,77.0
2023-03-29T02:51:18.000Z,77.0
2023-03-29T02:51:33.000Z,77.0
2023-03-29T02:51:48.000Z,77.0
2023-03-29T02:52:03.000Z,77.0
2023-03-29T02:52:18.000Z,77.0
2023-03-29T02:52:33.000Z,77.0
2023-03-29T02:53:03.000Z,77.0
2023-03-29T02:53:18.000Z,77.0
2023-03-29T02:53:33.000Z,77.0
2023-03-29T02:53:48.000Z,77.0
2023-03-29T02:54:03.000Z,77.0
2023-03-29T02:54:18.000Z,77.0
2023-03-29T02:54:33.000Z,77.0
2023-03-29T02:54:48.000Z,77.0
2023-03-29T02:55:03.000Z,77.0
2023-03-29T02:55:18.000Z,76.0
2023-03-29T02:55:33.000Z,76.0
2023-03-29T02:55:47.000Z,77.0
2023-03-29T02:56:02.000Z,76.0
2023-03-29T02:56:17.000Z,76.0
2023-03-29T02:56:32.000Z,76.0
2023-03-29T02:56:47.000Z,76.0
2023-03-29T02:57:02.000Z,76.0
2023-03-29T02:57:17.000Z,76.0
2023-03-29T02:57:32.000Z,76.0
2023-03-29T02:57:48.000Z,76.0
2023-03-29T02:58:03.000Z,76.0
2023-03-29T02:58:18.000Z,76.0
2023-03-29T02:58:33.000Z,76.0
2023-03-29T02:58:48.000Z,76.0
2023-03-29T02:59:03.000Z,76.0
2023-03-29T02:59:18.000Z,76.0
2023-03-29T02:59:33.000Z,76.0
2023-03-29T02:59:48.000Z,76.0
2023-03-29T03:00:03.000Z,76.0
2023-03-29T03:00:18.000Z,76.0
2023-03-29T03:00:33.000Z,76.0
2023-03-29T03:00:48.000Z,76.0
2023-03-29T03:01:03.000Z,76.0
2023-03-29T03:01:18.000Z,76.0
2023-03-29T03:01:33.000Z,76.0
2023-03-29T03:01:48.000Z,76.0
2023-03-29T03:02:03.000Z,76.0
2023-03-29T03:02:17.000Z,76.0
2023-03-29T03:02:32.000Z,76.0
2023-03-29T03:02:47.000Z,76.0
2023-03-29T03:03:02.000Z,76.0
2023-03-29T03:03:17.000Z,76.0
2023-03-29T03:03:32.000Z,76.0
2023-03-29T03:03:47.000Z,76.0
2023-03-29T03:04:03.000Z,76.0
2023-03-29T03:04:18.000Z,76.0
2023-03-29T03:04:33.000Z,75.0
2023-03-29T03:04:48.000Z,75.0
2023-03-29T03:05:03.000Z,75.0
2023-03-29T03:05:18.000Z,75.0
2023-03-29T03:05:33.000Z,75.0
2023-03-29T03:05:48.000Z,75.0
2023-03-29T03:06:03.000Z,75.0
2023-03-29T03:06:18.000Z,75.0
2023-03-29T03:06:33.000Z,75.0
2023-03-29T03:06:48.000Z,76.0
2023-03-29T03:07:03.000Z,75.0
2023-03-29T03:07:18.000Z,75.0
2023-03-29T03:07:33.000Z,75.0
2023-03-29T03:07:48.000Z,75.0
2023-03-29T03:08:03.000Z,75.0
2023-03-29T03:08:18.000Z,75.0
2023-03-29T03:08:32.000Z,75.0
2023-03-29T03:08:47.000Z,75.0
2023-03-29T03:09:02.000Z,75.0
2023-03-29T03:09:17.000Z,76.0
2023-03-29T03:09:32.000Z,76.0
2023-03-29T03:09:47.000Z,76.0
2023-03-29T03:10:02.000Z,76.0
2023-03-29T03:10:17.000Z,76.0
2023-03-29T03:10:33.000Z,76.0
2023-03-29T03:10:48.000Z,76.0
2023-03-29T03:11:03.000Z,76.0
2023-03-29T03:11:18.000Z,76.0
2023-03-29T03:11:33.000Z,76.0
2023-03-29T03:11:48.000Z,76.0
2023-03-29T03:12:03.000Z,76.0
2023-03-29T03:12:18.000Z,76.0
2023-03-29T03:12:33.000Z,76.0
2023-03-29T03:12:48.000Z,76.0
2023-03-29T03:13:03.000Z,76.0
2023-03-29T03:13:18.000Z,76.0
2023-03-29T03:13:33.000Z,76.0
2023-03-29T03:13:48.000Z,76.0
2023-03-29T03:14:03.000Z,76.0
2023-03-29T03:14:18.000Z,76.0
2023-03-29T03:14:33.000Z,76.0
2023-03-29T03:14:48.000Z,76.0
2023-03-29T03:15:02.000Z,76.0
2023-03-29T03:15:17.000Z,76.0
2023-03-29T03:15:32.000Z,76.0
2023-03-29T03:15:47.000Z,76.0
2023-03-29T03:16:02.000Z,76.0
2023-03-29T03:16:17.000Z,76.0
2023-03-29T03:16:32.000Z,76.0
2023-03-29T03:16:47.000Z,76.0
2023-03-29T03:17:03.000Z,76.0
2023-03-29T03:17:18.000Z,76.0
2023-03-29T03:17:33.000Z,76.0
2023-03-29T03:17:48.000Z,76.0
2023-03-29T03:18:03.000Z,76.0
2023-03-29T03:18:18.000Z,76.0
2023-03-29T03:18:33.000Z,76.0
2023-03-29T03:18:48.000Z,76.0
2023-03-29T03:19:03.000Z,76.0
2023-03-29T03:19:18.000Z,76.0
2023-03-29T03:19:33.000Z,76.0
2023-03-29T03:19:48.000Z,76.0
2023-03-29T03:20:03.000Z,76.0
2023-03-29T03:20:18.000Z,76.0
2023-03-29T03:20:33.000Z,76.0
2023-03-29T03:20:48.000Z,76.0
2023-03-29T03:21:03.000Z,76.0
2023-03-29T03:21:18.000Z,76.0
2023-03-29T03:21:32.000Z,76.0
2023-03-29T03:21:47.000Z,76.0
2023-03-29T03:22:02.000Z,76.0
2023-03-29T03:22:17.000Z,76.0
2023-03-29T03:22:32.000Z,76.0
2023-03-29T03:22:47.000Z,75.0
2023-03-29T03:23:02.000Z,75.0
2023-03-29T03:23:18.000Z,75.0
2023-03-29T03:23:33.000Z,75.0
2023-03-29T03:23:48.000Z,75.0
2023-03-29T03:24:03.000Z,75.0